sensor_id;sensor_type;location;lat;lon;timestamp;temperature;humidity
65072;DHT22;51663;52.310;17.016;2023-06-19T00:01:31;34.20;31.10
65072;DHT22;51663;52.310;17.016;2023-06-19T00:04:34;34.20;31.30
65072;DHT22;51663;52.310;17.016;2023-06-19T00:07:36;34.20;31.10
65072;DHT22;51663;52.310;17.016;2023-06-19T00:10:39;34.10;31.50
65072;DHT22;51663;52.310;17.016;2023-06-19T00:13:41;34.10;31.70
65072;DHT22;51663;52.310;17.016;2023-06-19T00:16:44;34.10;31.90
65072;DHT22;51663;52.310;17.016;2023-06-19T00:19:46;34.00;31.70
65072;DHT22;51663;52.310;17.016;2023-06-19T00:22:50;34.00;31.50
65072;DHT22;51663;52.310;17.016;2023-06-19T00:25:53;34.10;31.40
65072;DHT22;51663;52.310;17.016;2023-06-19T00:28:56;34.10;31.10
65072;DHT22;51663;52.310;17.016;2023-06-19T00:31:59;34.20;31.00
65072;DHT22;51663;52.310;17.016;2023-06-19T00:35:01;34.10;31.00
65072;DHT22;51663;52.310;17.016;2023-06-19T00:38:05;34.20;30.90
65072;DHT22;51663;52.310;17.016;2023-06-19T00:41:08;34.10;30.60
65072;DHT22;51663;52.310;17.016;2023-06-19T00:44:10;34.10;30.50
65072;DHT22;51663;52.310;17.016;2023-06-19T00:47:13;34.00;30.20
65072;DHT22;51663;52.310;17.016;2023-06-19T00:50:15;34.00;30.40
65072;DHT22;51663;52.310;17.016;2023-06-19T00:53:17;34.00;30.80
65072;DHT22;51663;52.310;17.016;2023-06-19T00:56:21;34.00;30.80
65072;DHT22;51663;52.310;17.016;2023-06-19T00:59:23;34.00;30.60
65072;DHT22;51663;52.310;17.016;2023-06-19T01:02:26;34.00;30.50
65072;DHT22;51663;52.310;17.016;2023-06-19T01:05:28;33.90;30.60
65072;DHT22;51663;52.310;17.016;2023-06-19T01:11:54;34.00;30.00
65072;DHT22;51663;52.310;17.016;2023-06-19T01:15:00;34.00;30.30
65072;DHT22;51663;52.310;17.016;2023-06-19T01:18:05;34.00;30.10
65072;DHT22;51663;52.310;17.016;2023-06-19T01:21:15;33.90;30.10
65072;DHT22;51663;52.310;17.016;2023-06-19T01:24:18;33.90;30.10
65072;DHT22;51663;52.310;17.016;2023-06-19T01:27:21;33.90;30.00
65072;DHT22;51663;52.310;17.016;2023-06-19T01:30:23;33.90;30.00
65072;DHT22;51663;52.310;17.016;2023-06-19T01:33:28;33.80;30.00
65072;DHT22;51663;52.310;17.016;2023-06-19T01:36:31;33.80;30.30
65072;DHT22;51663;52.310;17.016;2023-06-19T01:39:33;33.80;30.30
65072;DHT22;51663;52.310;17.016;2023-06-19T01:42:38;33.80;30.10
65072;DHT22;51663;52.310;17.016;2023-06-19T01:45:41;33.90;30.30
65072;DHT22;51663;52.310;17.016;2023-06-19T01:48:44;33.70;30.60
65072;DHT22;51663;52.310;17.016;2023-06-19T01:51:46;33.60;30.90
65072;DHT22;51663;52.310;17.016;2023-06-19T01:54:48;33.70;30.70
65072;DHT22;51663;52.310;17.016;2023-06-19T01:57:50;33.70;30.70
65072;DHT22;51663;52.310;17.016;2023-06-19T02:00:53;33.70;30.30
65072;DHT22;51663;52.310;17.016;2023-06-19T02:03:55;33.60;30.40
65072;DHT22;51663;52.310;17.016;2023-06-19T02:06:57;33.60;30.80
65072;DHT22;51663;52.310;17.016;2023-06-19T02:09:59;33.50;31.00
65072;DHT22;51663;52.310;17.016;2023-06-19T02:13:02;33.60;30.80
65072;DHT22;51663;52.310;17.016;2023-06-19T02:16:04;33.70;30.50
65072;DHT22;51663;52.310;17.016;2023-06-19T02:19:06;33.60;30.20
65072;DHT22;51663;52.310;17.016;2023-06-19T02:22:08;33.60;30.30
65072;DHT22;51663;52.310;17.016;2023-06-19T02:25:11;33.70;30.00
65072;DHT22;51663;52.310;17.016;2023-06-19T02:28:13;33.60;29.90
65072;DHT22;51663;52.310;17.016;2023-06-19T02:31:15;33.60;29.80
65072;DHT22;51663;52.310;17.016;2023-06-19T02:34:17;33.60;29.90
65072;DHT22;51663;52.310;17.016;2023-06-19T02:37:19;33.60;30.00
65072;DHT22;51663;52.310;17.016;2023-06-19T02:40:21;33.50;30.00
65072;DHT22;51663;52.310;17.016;2023-06-19T02:43:24;33.60;30.00
65072;DHT22;51663;52.310;17.016;2023-06-19T02:46:26;33.60;30.00
65072;DHT22;51663;52.310;17.016;2023-06-19T02:49:29;33.60;30.00
65072;DHT22;51663;52.310;17.016;2023-06-19T02:52:31;33.60;30.00
65072;DHT22;51663;52.310;17.016;2023-06-19T02:55:33;33.60;30.00
65072;DHT22;51663;52.310;17.016;2023-06-19T02:58:35;33.70;30.10
65072;DHT22;51663;52.310;17.016;2023-06-19T03:01:39;33.60;30.30
65072;DHT22;51663;52.310;17.016;2023-06-19T03:04:42;33.70;30.50
65072;DHT22;51663;52.310;17.016;2023-06-19T03:07:44;33.70;30.60
65072;DHT22;51663;52.310;17.016;2023-06-19T03:10:46;33.70;30.70
65072;DHT22;51663;52.310;17.016;2023-06-19T03:13:53;34.20;30.50
65072;DHT22;51663;52.310;17.016;2023-06-19T03:16:56;34.60;30.00
65072;DHT22;51663;52.310;17.016;2023-06-19T03:19:59;35.00;29.40
65072;DHT22;51663;52.310;17.016;2023-06-19T03:23:01;35.50;29.10
65072;DHT22;51663;52.310;17.016;2023-06-19T03:26:03;35.90;28.70
65072;DHT22;51663;52.310;17.016;2023-06-19T03:29:05;36.10;28.20
65072;DHT22;51663;52.310;17.016;2023-06-19T03:32:07;36.00;28.20
65072;DHT22;51663;52.310;17.016;2023-06-19T03:35:09;35.90;28.50
65072;DHT22;51663;52.310;17.016;2023-06-19T03:38:12;35.80;28.70
65072;DHT22;51663;52.310;17.016;2023-06-19T03:41:15;35.70;29.00
65072;DHT22;51663;52.310;17.016;2023-06-19T03:44:17;35.60;29.10
65072;DHT22;51663;52.310;17.016;2023-06-19T03:47:20;35.50;29.20
65072;DHT22;51663;52.310;17.016;2023-06-19T03:50:23;35.50;29.30
65072;DHT22;51663;52.310;17.016;2023-06-19T03:53:28;35.50;29.40
65072;DHT22;51663;52.310;17.016;2023-06-19T03:56:30;35.60;29.60
65072;DHT22;51663;52.310;17.016;2023-06-19T03:59:32;35.60;29.90
65072;DHT22;51663;52.310;17.016;2023-06-19T04:02:34;35.70;29.70
65072;DHT22;51663;52.310;17.016;2023-06-19T04:05:36;35.90;29.80
65072;DHT22;51663;52.310;17.016;2023-06-19T04:08:39;36.30;29.40
65072;DHT22;51663;52.310;17.016;2023-06-19T04:11:41;36.40;29.10
65072;DHT22;51663;52.310;17.016;2023-06-19T04:14:43;36.50;29.40
65072;DHT22;51663;52.310;17.016;2023-06-19T04:17:45;36.60;29.40
65072;DHT22;51663;52.310;17.016;2023-06-19T04:20:48;36.70;29.40
65072;DHT22;51663;52.310;17.016;2023-06-19T04:23:50;37.10;29.30
65072;DHT22;51663;52.310;17.016;2023-06-19T04:26:52;37.50;29.10
65072;DHT22;51663;52.310;17.016;2023-06-19T04:29:54;37.70;29.20
65072;DHT22;51663;52.310;17.016;2023-06-19T04:32:59;37.50;29.40
65072;DHT22;51663;52.310;17.016;2023-06-19T04:36:02;37.50;29.60
65072;DHT22;51663;52.310;17.016;2023-06-19T04:39:04;37.50;29.80
65072;DHT22;51663;52.310;17.016;2023-06-19T04:42:06;37.60;30.00
65072;DHT22;51663;52.310;17.016;2023-06-19T04:45:09;38.30;29.90
65072;DHT22;51663;52.310;17.016;2023-06-19T04:48:11;39.30;29.40
65072;DHT22;51663;52.310;17.016;2023-06-19T04:51:14;40.30;28.70
65072;DHT22;51663;52.310;17.016;2023-06-19T04:54:16;40.90;28.00
65072;DHT22;51663;52.310;17.016;2023-06-19T04:57:18;40.50;27.90
65072;DHT22;51663;52.310;17.016;2023-06-19T05:00:20;40.60;28.00
65072;DHT22;51663;52.310;17.016;2023-06-19T05:03:25;41.10;27.90
65072;DHT22;51663;52.310;17.016;2023-06-19T05:06:27;41.70;27.20
65072;DHT22;51663;52.310;17.016;2023-06-19T05:09:30;42.60;27.00
65072;DHT22;51663;52.310;17.016;2023-06-19T05:12:33;43.10;26.40
65072;DHT22;51663;52.310;17.016;2023-06-19T05:15:36;43.40;25.90
65072;DHT22;51663;52.310;17.016;2023-06-19T05:18:38;43.80;25.60
65072;DHT22;51663;52.310;17.016;2023-06-19T05:21:40;44.30;25.70
65072;DHT22;51663;52.310;17.016;2023-06-19T05:24:42;44.50;25.50
65072;DHT22;51663;52.310;17.016;2023-06-19T05:27:44;44.80;25.30
65072;DHT22;51663;52.310;17.016;2023-06-19T05:30:46;45.20;24.80
65072;DHT22;51663;52.310;17.016;2023-06-19T05:33:49;45.50;24.60
65072;DHT22;51663;52.310;17.016;2023-06-19T05:36:51;45.70;24.20
65072;DHT22;51663;52.310;17.016;2023-06-19T05:39:53;45.90;24.30
65072;DHT22;51663;52.310;17.016;2023-06-19T05:42:55;46.10;23.90
65072;DHT22;51663;52.310;17.016;2023-06-19T05:45:58;46.20;23.60
65072;DHT22;51663;52.310;17.016;2023-06-19T05:49:04;46.40;23.30
65072;DHT22;51663;52.310;17.016;2023-06-19T05:52:07;46.60;22.90
65072;DHT22;51663;52.310;17.016;2023-06-19T05:55:10;46.80;22.90
65072;DHT22;51663;52.310;17.016;2023-06-19T05:58:12;46.80;22.90
65072;DHT22;51663;52.310;17.016;2023-06-19T06:01:14;46.80;23.10
65072;DHT22;51663;52.310;17.016;2023-06-19T06:04:16;46.90;23.30
65072;DHT22;51663;52.310;17.016;2023-06-19T06:07:19;47.10;23.20
65072;DHT22;51663;52.310;17.016;2023-06-19T06:10:22;47.00;23.20
65072;DHT22;51663;52.310;17.016;2023-06-19T06:13:25;47.00;23.10
65072;DHT22;51663;52.310;17.016;2023-06-19T06:16:27;47.20;22.80
65072;DHT22;51663;52.310;17.016;2023-06-19T06:19:29;47.50;23.10
65072;DHT22;51663;52.310;17.016;2023-06-19T06:22:34;47.60;22.80
65072;DHT22;51663;52.310;17.016;2023-06-19T06:25:36;47.60;22.80
65072;DHT22;51663;52.310;17.016;2023-06-19T06:28:38;47.50;22.60
65072;DHT22;51663;52.310;17.016;2023-06-19T06:31:41;47.50;22.60
65072;DHT22;51663;52.310;17.016;2023-06-19T06:34:43;47.40;23.00
65072;DHT22;51663;52.310;17.016;2023-06-19T06:37:45;47.60;22.50
65072;DHT22;51663;52.310;17.016;2023-06-19T06:40:49;47.70;22.60
65072;DHT22;51663;52.310;17.016;2023-06-19T06:43:50;47.50;22.60
65072;DHT22;51663;52.310;17.016;2023-06-19T06:46:53;47.60;23.20
65072;DHT22;51663;52.310;17.016;2023-06-19T06:49:57;47.80;22.60
65072;DHT22;51663;52.310;17.016;2023-06-19T06:53:00;47.80;22.40
65072;DHT22;51663;52.310;17.016;2023-06-19T06:56:03;47.70;22.50
65072;DHT22;51663;52.310;17.016;2023-06-19T06:59:06;47.50;22.60
65072;DHT22;51663;52.310;17.016;2023-06-19T07:02:08;47.50;22.50
65072;DHT22;51663;52.310;17.016;2023-06-19T07:05:10;47.50;22.50
65072;DHT22;51663;52.310;17.016;2023-06-19T07:08:12;47.60;22.70
65072;DHT22;51663;52.310;17.016;2023-06-19T07:11:15;47.40;22.70
65072;DHT22;51663;52.310;17.016;2023-06-19T07:14:17;47.50;22.50
65072;DHT22;51663;52.310;17.016;2023-06-19T07:17:22;47.30;22.60
65072;DHT22;51663;52.310;17.016;2023-06-19T07:20:24;47.10;22.00
65072;DHT22;51663;52.310;17.016;2023-06-19T07:23:27;47.20;21.40
65072;DHT22;51663;52.310;17.016;2023-06-19T07:26:32;47.10;21.70
65072;DHT22;51663;52.310;17.016;2023-06-19T07:29:34;47.00;21.90
65072;DHT22;51663;52.310;17.016;2023-06-19T07:32:37;47.00;21.90
65072;DHT22;51663;52.310;17.016;2023-06-19T07:35:39;46.80;22.00
65072;DHT22;51663;52.310;17.016;2023-06-19T07:38:42;46.60;21.70
65072;DHT22;51663;52.310;17.016;2023-06-19T07:41:45;46.70;20.80
65072;DHT22;51663;52.310;17.016;2023-06-19T07:44:47;46.30;20.70
65072;DHT22;51663;52.310;17.016;2023-06-19T07:47:56;46.50;21.50
65072;DHT22;51663;52.310;17.016;2023-06-19T07:50:59;46.40;21.00
65072;DHT22;51663;52.310;17.016;2023-06-19T07:54:02;46.30;21.30
65072;DHT22;51663;52.310;17.016;2023-06-19T07:57:04;46.50;21.30
65072;DHT22;51663;52.310;17.016;2023-06-19T08:00:07;46.70;21.40
65072;DHT22;51663;52.310;17.016;2023-06-19T08:03:13;46.90;20.80
65072;DHT22;51663;52.310;17.016;2023-06-19T08:06:17;46.90;21.50
65072;DHT22;51663;52.310;17.016;2023-06-19T08:09:20;46.90;21.00
65072;DHT22;51663;52.310;17.016;2023-06-19T08:12:22;46.60;20.80
65072;DHT22;51663;52.310;17.016;2023-06-19T08:15:24;46.60;21.00
65072;DHT22;51663;52.310;17.016;2023-06-19T08:18:27;46.60;21.10
65072;DHT22;51663;52.310;17.016;2023-06-19T08:21:30;46.60;21.10
65072;DHT22;51663;52.310;17.016;2023-06-19T08:24:32;46.60;21.00
65072;DHT22;51663;52.310;17.016;2023-06-19T08:27:34;46.60;20.80
65072;DHT22;51663;52.310;17.016;2023-06-19T08:30:36;46.20;20.60
65072;DHT22;51663;52.310;17.016;2023-06-19T08:33:38;46.50;20.10
65072;DHT22;51663;52.310;17.016;2023-06-19T08:36:41;46.20;20.40
65072;DHT22;51663;52.310;17.016;2023-06-19T08:39:43;46.10;20.10
65072;DHT22;51663;52.310;17.016;2023-06-19T08:42:46;46.10;20.70
65072;DHT22;51663;52.310;17.016;2023-06-19T08:46:10;46.00;20.70
65072;DHT22;51663;52.310;17.016;2023-06-19T08:49:13;45.70;20.80
65072;DHT22;51663;52.310;17.016;2023-06-19T08:52:15;45.20;21.40
65072;DHT22;51663;52.310;17.016;2023-06-19T08:55:18;44.70;21.90
65072;DHT22;51663;52.310;17.016;2023-06-19T08:58:22;44.60;22.30
65072;DHT22;51663;52.310;17.016;2023-06-19T09:01:26;44.00;22.50
65072;DHT22;51663;52.310;17.016;2023-06-19T09:04:28;43.90;22.90
65072;DHT22;51663;52.310;17.016;2023-06-19T09:07:33;43.70;22.00
65072;DHT22;51663;52.310;17.016;2023-06-19T09:10:35;43.60;22.10
65072;DHT22;51663;52.310;17.016;2023-06-19T09:13:38;43.00;22.10
65072;DHT22;51663;52.310;17.016;2023-06-19T09:16:41;42.90;22.80
65072;DHT22;51663;52.310;17.016;2023-06-19T09:19:48;42.90;23.30
65072;DHT22;51663;52.310;17.016;2023-06-19T09:22:57;42.70;23.00
65072;DHT22;51663;52.310;17.016;2023-06-19T09:26:00;42.60;23.00
65072;DHT22;51663;52.310;17.016;2023-06-19T09:29:15;42.80;23.30
65072;DHT22;51663;52.310;17.016;2023-06-19T09:32:26;42.80;22.50
65072;DHT22;51663;52.310;17.016;2023-06-19T09:35:30;42.90;22.40
65072;DHT22;51663;52.310;17.016;2023-06-19T09:38:35;42.90;22.30
65072;DHT22;51663;52.310;17.016;2023-06-19T09:41:39;42.70;22.70
65072;DHT22;51663;52.310;17.016;2023-06-19T09:44:43;42.30;22.70
65072;DHT22;51663;52.310;17.016;2023-06-19T09:47:52;42.20;22.70
65072;DHT22;51663;52.310;17.016;2023-06-19T09:51:09;41.90;22.80
65072;DHT22;51663;52.310;17.016;2023-06-19T09:54:14;41.90;23.50
65072;DHT22;51663;52.310;17.016;2023-06-19T09:57:18;42.10;22.80
65072;DHT22;51663;52.310;17.016;2023-06-19T10:00:20;42.40;24.20
65072;DHT22;51663;52.310;17.016;2023-06-19T10:03:33;42.40;23.20
65072;DHT22;51663;52.310;17.016;2023-06-19T10:06:46;42.60;22.60
65072;DHT22;51663;52.310;17.016;2023-06-19T10:09:59;42.90;22.50
65072;DHT22;51663;52.310;17.016;2023-06-19T10:13:13;43.30;22.70
65072;DHT22;51663;52.310;17.016;2023-06-19T10:16:22;43.20;22.60
65072;DHT22;51663;52.310;17.016;2023-06-19T10:19:25;43.10;22.30
65072;DHT22;51663;52.310;17.016;2023-06-19T10:22:31;43.20;22.80
65072;DHT22;51663;52.310;17.016;2023-06-19T10:25:36;43.50;23.00
65072;DHT22;51663;52.310;17.016;2023-06-19T10:28:39;43.40;22.90
65072;DHT22;51663;52.310;17.016;2023-06-19T10:31:42;43.40;22.70
65072;DHT22;51663;52.310;17.016;2023-06-19T10:34:46;43.30;22.80
65072;DHT22;51663;52.310;17.016;2023-06-19T10:37:51;43.20;23.30
65072;DHT22;51663;52.310;17.016;2023-06-19T10:40:53;42.80;22.90
65072;DHT22;51663;52.310;17.016;2023-06-19T10:44:04;42.70;22.90
65072;DHT22;51663;52.310;17.016;2023-06-19T10:47:06;42.60;23.40
65072;DHT22;51663;52.310;17.016;2023-06-19T10:50:13;41.90;23.20
65072;DHT22;51663;52.310;17.016;2023-06-19T10:53:31;41.90;23.10
65072;DHT22;51663;52.310;17.016;2023-06-19T10:56:33;41.70;23.40
65072;DHT22;51663;52.310;17.016;2023-06-19T10:59:36;41.90;23.60
65072;DHT22;51663;52.310;17.016;2023-06-19T11:02:41;42.30;23.40
65072;DHT22;51663;52.310;17.016;2023-06-19T11:05:47;41.80;23.90
65072;DHT22;51663;52.310;17.016;2023-06-19T11:08:52;42.20;23.20
65072;DHT22;51663;52.310;17.016;2023-06-19T11:11:54;42.30;23.20
65072;DHT22;51663;52.310;17.016;2023-06-19T11:14:57;42.60;23.10
65072;DHT22;51663;52.310;17.016;2023-06-19T11:18:01;42.70;22.60
65072;DHT22;51663;52.310;17.016;2023-06-19T11:21:04;42.70;21.80
65072;DHT22;51663;52.310;17.016;2023-06-19T11:24:12;42.60;21.70
65072;DHT22;51663;52.310;17.016;2023-06-19T11:27:22;42.60;21.80
65072;DHT22;51663;52.310;17.016;2023-06-19T11:30:32;42.80;21.90
65072;DHT22;51663;52.310;17.016;2023-06-19T11:33:35;43.00;22.30
65072;DHT22;51663;52.310;17.016;2023-06-19T11:36:38;42.60;22.70
65072;DHT22;51663;52.310;17.016;2023-06-19T11:39:43;42.70;23.10
65072;DHT22;51663;52.310;17.016;2023-06-19T11:42:51;42.70;22.70
65072;DHT22;51663;52.310;17.016;2023-06-19T11:45:54;42.90;22.00
65072;DHT22;51663;52.310;17.016;2023-06-19T11:49:15;42.90;22.10
65072;DHT22;51663;52.310;17.016;2023-06-19T11:52:20;43.00;22.60
65072;DHT22;51663;52.310;17.016;2023-06-19T11:55:22;43.00;22.00
65072;DHT22;51663;52.310;17.016;2023-06-19T11:58:24;42.90;22.20
65072;DHT22;51663;52.310;17.016;2023-06-19T12:01:27;43.00;22.20
65072;DHT22;51663;52.310;17.016;2023-06-19T12:04:29;43.10;21.80
65072;DHT22;51663;52.310;17.016;2023-06-19T12:07:31;43.10;22.40
65072;DHT22;51663;52.310;17.016;2023-06-19T12:10:34;43.20;22.10
65072;DHT22;51663;52.310;17.016;2023-06-19T12:13:40;42.90;22.10
65072;DHT22;51663;52.310;17.016;2023-06-19T12:16:45;42.80;22.40
65072;DHT22;51663;52.310;17.016;2023-06-19T12:19:48;43.00;21.80
65072;DHT22;51663;52.310;17.016;2023-06-19T12:22:51;43.30;21.10
65072;DHT22;51663;52.310;17.016;2023-06-19T12:25:53;43.40;21.10
65072;DHT22;51663;52.310;17.016;2023-06-19T12:28:55;43.50;21.40
65072;DHT22;51663;52.310;17.016;2023-06-19T12:32:01;43.60;21.30
65072;DHT22;51663;52.310;17.016;2023-06-19T12:35:04;43.60;21.20
65072;DHT22;51663;52.310;17.016;2023-06-19T12:38:08;43.70;20.80
65072;DHT22;51663;52.310;17.016;2023-06-19T12:41:11;43.70;20.90
65072;DHT22;51663;52.310;17.016;2023-06-19T12:44:13;43.90;20.50
65072;DHT22;51663;52.310;17.016;2023-06-19T12:47:16;43.70;20.40
65072;DHT22;51663;52.310;17.016;2023-06-19T12:50:20;43.30;20.80
65072;DHT22;51663;52.310;17.016;2023-06-19T12:53:22;43.10;20.20
65072;DHT22;51663;52.310;17.016;2023-06-19T12:56:29;42.90;20.20
65072;DHT22;51663;52.310;17.016;2023-06-19T12:59:31;42.90;20.20
65072;DHT22;51663;52.310;17.016;2023-06-19T13:02:34;43.30;20.20
65072;DHT22;51663;52.310;17.016;2023-06-19T13:05:37;43.40;20.80
65072;DHT22;51663;52.310;17.016;2023-06-19T13:08:39;43.20;20.50
65072;DHT22;51663;52.310;17.016;2023-06-19T13:11:41;43.50;20.90
65072;DHT22;51663;52.310;17.016;2023-06-19T13:14:43;43.70;20.70
65072;DHT22;51663;52.310;17.016;2023-06-19T13:17:45;43.70;20.30
65072;DHT22;51663;52.310;17.016;2023-06-19T13:20:48;43.90;20.40
65072;DHT22;51663;52.310;17.016;2023-06-19T13:23:50;43.90;20.40
65072;DHT22;51663;52.310;17.016;2023-06-19T13:26:53;43.70;19.60
65072;DHT22;51663;52.310;17.016;2023-06-19T13:29:56;44.00;20.30
65072;DHT22;51663;52.310;17.016;2023-06-19T13:32:58;44.30;19.90
65072;DHT22;51663;52.310;17.016;2023-06-19T13:36:03;44.60;19.70
65072;DHT22;51663;52.310;17.016;2023-06-19T13:39:05;44.60;19.90
65072;DHT22;51663;52.310;17.016;2023-06-19T13:42:08;44.60;19.40
65072;DHT22;51663;52.310;17.016;2023-06-19T13:45:10;44.30;19.60
65072;DHT22;51663;52.310;17.016;2023-06-19T13:48:12;44.50;19.80
65072;DHT22;51663;52.310;17.016;2023-06-19T13:51:14;44.60;20.30
65072;DHT22;51663;52.310;17.016;2023-06-19T13:54:17;44.80;20.20
65072;DHT22;51663;52.310;17.016;2023-06-19T13:57:19;44.80;19.40
65072;DHT22;51663;52.310;17.016;2023-06-19T14:00:21;44.60;19.60
65072;DHT22;51663;52.310;17.016;2023-06-19T14:03:24;44.70;20.20
65072;DHT22;51663;52.310;17.016;2023-06-19T14:06:26;44.80;19.70
65072;DHT22;51663;52.310;17.016;2023-06-19T14:09:28;44.90;19.40
65072;DHT22;51663;52.310;17.016;2023-06-19T14:12:31;44.90;19.00
65072;DHT22;51663;52.310;17.016;2023-06-19T14:15:33;44.90;19.10
65072;DHT22;51663;52.310;17.016;2023-06-19T14:18:36;45.00;19.30
65072;DHT22;51663;52.310;17.016;2023-06-19T14:21:39;45.00;19.50
65072;DHT22;51663;52.310;17.016;2023-06-19T14:24:41;45.20;20.00
65072;DHT22;51663;52.310;17.016;2023-06-19T14:27:44;45.00;19.30
65072;DHT22;51663;52.310;17.016;2023-06-19T14:30:47;45.00;19.70
65072;DHT22;51663;52.310;17.016;2023-06-19T14:33:49;45.20;19.10
65072;DHT22;51663;52.310;17.016;2023-06-19T14:36:51;45.50;19.30
65072;DHT22;51663;52.310;17.016;2023-06-19T14:39:54;45.50;19.50
65072;DHT22;51663;52.310;17.016;2023-06-19T14:42:56;45.50;19.80
65072;DHT22;51663;52.310;17.016;2023-06-19T14:45:58;45.60;19.00
65072;DHT22;51663;52.310;17.016;2023-06-19T14:49:00;45.90;18.90
65072;DHT22;51663;52.310;17.016;2023-06-19T14:52:04;45.60;19.20
65072;DHT22;51663;52.310;17.016;2023-06-19T14:55:06;45.60;19.40
65072;DHT22;51663;52.310;17.016;2023-06-19T14:58:08;45.50;19.40
65072;DHT22;51663;52.310;17.016;2023-06-19T15:01:10;45.30;20.10
65072;DHT22;51663;52.310;17.016;2023-06-19T15:04:13;45.00;20.00
65072;DHT22;51663;52.310;17.016;2023-06-19T15:07:16;44.70;20.50
65072;DHT22;51663;52.310;17.016;2023-06-19T15:10:18;44.70;20.40
65072;DHT22;51663;52.310;17.016;2023-06-19T15:13:20;44.90;20.20
65072;DHT22;51663;52.310;17.016;2023-06-19T15:16:22;44.90;20.90
65072;DHT22;51663;52.310;17.016;2023-06-19T15:19:27;44.90;20.50
65072;DHT22;51663;52.310;17.016;2023-06-19T15:22:29;44.90;20.00
65072;DHT22;51663;52.310;17.016;2023-06-19T15:25:31;44.70;20.30
65072;DHT22;51663;52.310;17.016;2023-06-19T15:28:34;44.40;20.70
65072;DHT22;51663;52.310;17.016;2023-06-19T15:31:37;44.40;20.50
65072;DHT22;51663;52.310;17.016;2023-06-19T15:34:39;44.30;20.90
65072;DHT22;51663;52.310;17.016;2023-06-19T15:37:42;44.40;21.00
65072;DHT22;51663;52.310;17.016;2023-06-19T15:40:45;44.40;20.30
65072;DHT22;51663;52.310;17.016;2023-06-19T15:43:47;44.40;20.30
65072;DHT22;51663;52.310;17.016;2023-06-19T15:46:50;44.30;21.20
65072;DHT22;51663;52.310;17.016;2023-06-19T15:49:52;44.30;20.90
65072;DHT22;51663;52.310;17.016;2023-06-19T15:52:54;44.10;21.20
65072;DHT22;51663;52.310;17.016;2023-06-19T15:55:56;44.10;21.00
65072;DHT22;51663;52.310;17.016;2023-06-19T15:58:59;44.30;21.10
65072;DHT22;51663;52.310;17.016;2023-06-19T16:02:01;44.40;21.10
65072;DHT22;51663;52.310;17.016;2023-06-19T16:05:03;44.30;21.60
65072;DHT22;51663;52.310;17.016;2023-06-19T16:08:05;44.40;21.10
65072;DHT22;51663;52.310;17.016;2023-06-19T16:11:08;44.30;21.50
65072;DHT22;51663;52.310;17.016;2023-06-19T16:14:11;44.20;21.40
65072;DHT22;51663;52.310;17.016;2023-06-19T16:17:14;44.30;21.60
65072;DHT22;51663;52.310;17.016;2023-06-19T16:20:16;44.40;21.80
65072;DHT22;51663;52.310;17.016;2023-06-19T16:23:18;44.30;22.50
65072;DHT22;51663;52.310;17.016;2023-06-19T16:26:20;44.30;21.60
65072;DHT22;51663;52.310;17.016;2023-06-19T16:29:22;44.40;21.70
65072;DHT22;51663;52.310;17.016;2023-06-19T16:32:24;44.50;21.20
65072;DHT22;51663;52.310;17.016;2023-06-19T16:35:27;44.40;21.30
65072;DHT22;51663;52.310;17.016;2023-06-19T16:38:29;44.40;21.40
65072;DHT22;51663;52.310;17.016;2023-06-19T16:41:31;44.30;21.40
65072;DHT22;51663;52.310;17.016;2023-06-19T16:44:33;44.20;21.10
65072;DHT22;51663;52.310;17.016;2023-06-19T16:47:36;44.10;20.80
65072;DHT22;51663;52.310;17.016;2023-06-19T16:50:38;43.90;20.90
65072;DHT22;51663;52.310;17.016;2023-06-19T16:53:41;43.90;21.10
65072;DHT22;51663;52.310;17.016;2023-06-19T16:56:44;43.90;21.50
65072;DHT22;51663;52.310;17.016;2023-06-19T16:59:47;43.90;21.60
65072;DHT22;51663;52.310;17.016;2023-06-19T17:02:49;43.80;21.50
65072;DHT22;51663;52.310;17.016;2023-06-19T17:05:57;43.70;21.20
65072;DHT22;51663;52.310;17.016;2023-06-19T17:08:59;43.80;21.50
65072;DHT22;51663;52.310;17.016;2023-06-19T17:12:01;43.90;21.50
65072;DHT22;51663;52.310;17.016;2023-06-19T17:15:04;43.90;22.20
65072;DHT22;51663;52.310;17.016;2023-06-19T17:18:06;43.90;22.00
65072;DHT22;51663;52.310;17.016;2023-06-19T17:21:08;43.90;22.70
65072;DHT22;51663;52.310;17.016;2023-06-19T17:24:11;43.90;21.90
65072;DHT22;51663;52.310;17.016;2023-06-19T17:27:15;43.90;23.10
65072;DHT22;51663;52.310;17.016;2023-06-19T17:30:17;43.80;21.50
65072;DHT22;51663;52.310;17.016;2023-06-19T17:33:19;43.70;20.60
65072;DHT22;51663;52.310;17.016;2023-06-19T17:36:21;43.80;20.70
65072;DHT22;51663;52.310;17.016;2023-06-19T17:39:23;43.80;21.30
65072;DHT22;51663;52.310;17.016;2023-06-19T17:42:26;43.90;21.40
65072;DHT22;51663;52.310;17.016;2023-06-19T17:45:28;44.00;20.70
65072;DHT22;51663;52.310;17.016;2023-06-19T17:48:30;44.00;20.30
65072;DHT22;51663;52.310;17.016;2023-06-19T17:51:33;44.00;19.70
65072;DHT22;51663;52.310;17.016;2023-06-19T17:54:35;44.00;21.30
65072;DHT22;51663;52.310;17.016;2023-06-19T17:57:37;43.90;21.40
65072;DHT22;51663;52.310;17.016;2023-06-19T18:00:40;43.80;21.60
65072;DHT22;51663;52.310;17.016;2023-06-19T18:03:42;43.70;21.60
65072;DHT22;51663;52.310;17.016;2023-06-19T18:06:44;43.50;21.80
65072;DHT22;51663;52.310;17.016;2023-06-19T18:09:47;43.40;22.50
65072;DHT22;51663;52.310;17.016;2023-06-19T18:12:49;43.30;23.30
65072;DHT22;51663;52.310;17.016;2023-06-19T18:15:51;43.20;24.00
65072;DHT22;51663;52.310;17.016;2023-06-19T18:19:12;43.00;23.90
65072;DHT22;51663;52.310;17.016;2023-06-19T18:22:14;42.90;23.70
65072;DHT22;51663;52.310;17.016;2023-06-19T18:25:17;42.70;24.10
65072;DHT22;51663;52.310;17.016;2023-06-19T18:28:19;42.70;25.00
65072;DHT22;51663;52.310;17.016;2023-06-19T18:31:21;42.50;24.80
65072;DHT22;51663;52.310;17.016;2023-06-19T18:34:23;42.30;25.20
65072;DHT22;51663;52.310;17.016;2023-06-19T18:37:26;42.20;25.40
65072;DHT22;51663;52.310;17.016;2023-06-19T18:40:29;41.90;24.30
65072;DHT22;51663;52.310;17.016;2023-06-19T18:43:32;41.90;24.40
65072;DHT22;51663;52.310;17.016;2023-06-19T18:46:37;41.70;24.70
65072;DHT22;51663;52.310;17.016;2023-06-19T18:49:40;41.70;24.80
65072;DHT22;51663;52.310;17.016;2023-06-19T18:52:43;41.70;25.30
65072;DHT22;51663;52.310;17.016;2023-06-19T18:55:45;41.60;24.70
65072;DHT22;51663;52.310;17.016;2023-06-19T18:58:47;41.60;25.30
65072;DHT22;51663;52.310;17.016;2023-06-19T19:01:49;41.60;25.70